Time;durP1;ratioP1;P1;durP2;ratioP2;P2;SDS_P1;SDS_P2;PMS_P1;PMS_P2;Temp;Humidity;BMP_temperature;BMP_pressure;BME280_temperature;BME280_humidity;BME280_pressure;Samples;Min_cycle;Max_cycle;Signal;HPM_P1;HPM_P2
2021/12/25 00:01:50;;;;;;;2.25;0.38;;;;;;;-1.65;99.48;100070.84;5262008;28;20016;-77
2021/12/25 00:04:21;;;;;;;0.95;0.40;;;;;;;-1.48;100.00;100058.09;5246103;28;20490;-80
2021/12/25 00:06:51;;;;;;;1.30;0.20;;;;;;;-1.68;98.83;100059.72;5264603;28;20024;-77
2021/12/25 00:09:22;;;;;;;2.10;0.40;;;;;;;-1.80;95.48;100069.91;5264236;28;20024;-76
2021/12/25 00:11:53;;;;;;;1.15;0.20;;;;;;;-1.81;93.35;100068.19;5264252;28;20027;-77
2021/12/25 00:14:23;;;;;;;1.45;0.10;;;;;;;-1.82;91.47;100054.53;5264400;28;20115;-78
2021/12/25 00:16:53;;;;;;;0.93;0.30;;;;;;;-1.93;89.78;100062.16;5263748;28;20107;-78
2021/12/25 00:19:24;;;;;;;0.50;0.20;;;;;;;-2.05;87.53;100068.06;5260414;28;20028;-77
2021/12/25 00:21:55;;;;;;;0.73;0.20;;;;;;;-1.96;87.84;100068.09;5258735;28;20032;-77
2021/12/25 00:24:26;;;;;;;0.98;0.30;;;;;;;-2.07;85.92;100067.19;5263666;28;20428;-78
2021/12/25 00:32:48;;;;;;;1.05;0.28;;;;;;;-1.96;87.41;100078.34;5257284;28;20043;-79
2021/12/25 00:35:19;;;;;;;0.38;0.10;;;;;;;-2.05;88.04;100078.28;5256927;28;20117;-78
2021/12/25 00:37:50;;;;;;;0.80;0.17;;;;;;;-2.09;89.12;100084.25;5263959;28;20031;-78
2021/12/25 00:40:20;;;;;;;3.40;0.30;;;;;;;-2.12;88.28;100068.88;5263750;28;20035;-77
2021/12/25 00:42:51;;;;;;;1.08;0.20;;;;;;;-2.21;88.15;100084.16;5262099;28;20031;-79
2021/12/25 00:45:21;;;;;;;1.67;0.10;;;;;;;-2.23;85.35;100093.53;5263827;28;20103;-78
2021/12/25 00:47:51;;;;;;;1.85;0.35;;;;;;;-2.20;85.76;100096.09;5263366;28;20028;-77
2021/12/25 00:50:21;;;;;;;1.20;0.30;;;;;;;-2.19;85.64;100095.25;5257788;28;20024;-78
2021/12/25 00:52:52;;;;;;;0.88;0.10;;;;;;;-2.28;84.82;100094.31;5259937;28;20172;-78
2021/12/25 00:55:22;;;;;;;2.35;0.20;;;;;;;-2.22;85.33;100097.78;5257011;28;20021;-78
2021/12/25 00:57:52;;;;;;;0.63;0.22;;;;;;;-2.16;86.41;100100.38;5264015;28;20047;-78
2021/12/25 01:00:23;;;;;;;0.55;0.20;;;;;;;-2.21;87.71;100113.97;5263024;28;20115;-78
2021/12/25 01:02:53;;;;;;;0.50;0.28;;;;;;;-2.26;87.07;100126.75;5264515;28;20442;-77
2021/12/25 01:05:24;;;;;;;0.30;0.15;;;;;;;-2.15;87.72;100121.72;5265286;28;20028;-77
2021/12/25 01:07:54;;;;;;;1.45;0.32;;;;;;;-2.28;86.72;100120.78;5264907;28;20109;-78
2021/12/25 01:10:25;;;;;;;0.98;0.28;;;;;;;-2.15;88.32;100137.06;5265334;28;20028;-77
2021/12/25 01:14:02;;;;;;;1.20;0.10;;;;;;;-2.26;87.14;100134.44;5263319;28;20070;-77
2021/12/25 01:24:29;;;;;;;0.20;0.20;;;;;;;-2.33;85.80;100163.34;5256406;28;20098;-78
2021/12/25 01:48:22;;;;;;;0.20;0.10;;;;;;;-2.41;87.83;100177.78;5256688;28;20028;-78
2021/12/25 01:50:53;;;;;;;0.60;0.20;;;;;;;-2.46;88.15;100182.00;5256059;28;20027;-78
2021/12/25 01:53:24;;;;;;;1.58;0.30;;;;;;;-2.48;88.87;100191.34;5260412;28;20023;-78
2021/12/25 01:55:54;;;;;;;1.60;0.38;;;;;;;-2.48;89.12;100193.06;5257021;28;20193;-77
2021/12/25 01:58:25;;;;;;;2.53;0.28;;;;;;;-2.32;89.37;100195.75;5257717;28;20295;-78
2021/12/25 02:00:58;;;;;;;0.73;0.28;;;;;;;-2.41;88.95;100195.69;5261008;28;20031;-78
2021/12/25 02:03:30;;;;;;;0.50;0.30;;;;;;;-2.45;90.49;100193.09;5263117;28;20031;-77
2021/12/25 02:06:00;;;;;;;2.17;0.38;;;;;;;-2.41;90.48;100197.38;5262597;28;20031;-78
2021/12/25 02:08:33;;;;;;;2.30;0.30;;;;;;;-2.40;90.38;100202.53;5262894;28;20024;-78
2021/12/25 02:11:04;;;;;;;0.80;0.20;;;;;;;-2.48;89.44;100213.53;5263380;28;21182;-79
2021/12/25 02:13:34;;;;;;;0.30;0.20;;;;;;;-2.51;90.80;100219.44;5262240;28;20063;-79
2021/12/25 02:16:13;;;;;;;0.60;0.25;;;;;;;-2.47;90.78;100217.78;5263076;28;20039;-79
2021/12/25 02:21:35;;;;;;;3.03;0.30;;;;;;;-2.49;90.41;100216.91;5255365;28;20559;-77
2021/12/25 02:24:07;;;;;;;2.55;0.22;;;;;;;-2.65;90.76;100215.03;5261721;28;20020;-77
2021/12/25 02:26:40;;;;;;;1.75;0.30;;;;;;;-2.64;90.42;100220.19;5255548;28;20544;-77
2021/12/25 02:29:11;;;;;;;2.58;0.38;;;;;;;-2.51;91.74;100216.88;5259295;28;20521;-78
2021/12/25 02:31:41;;;;;;;0.47;0.10;;;;;;;-2.53;91.04;100216.03;5255103;28;20127;-77
2021/12/25 02:34:12;;;;;;;1.38;0.15;;;;;;;-2.61;90.39;100216.78;5259448;28;20449;-78
2021/12/25 02:36:43;;;;;;;0.85;0.30;;;;;;;-2.65;89.33;100226.09;5262481;28;20020;-78
2021/12/25 02:39:14;;;;;;;0.38;0.20;;;;;;;-2.59;89.18;100228.75;5262637;28;20077;-79
2021/12/25 02:41:44;;;;;;;0.38;0.17;;;;;;;-2.72;90.33;100218.38;5254376;28;20685;-78
2021/12/25 02:44:14;;;;;;;2.25;0.20;;;;;;;-2.67;90.17;100219.28;5258739;28;20020;-77
2021/12/25 02:46:47;;;;;;;0.55;0.30;;;;;;;-2.74;90.49;100215.78;5238620;28;20032;-77
2021/12/25 02:49:18;;;;;;;1.85;0.40;;;;;;;-2.78;90.08;100214.06;5249245;28;20028;-78
2021/12/25 02:51:48;;;;;;;0.50;0.17;;;;;;;-2.89;90.09;100225.84;5248134;28;20398;-77
2021/12/25 02:54:18;;;;;;;1.98;0.20;;;;;;;-2.75;91.14;100224.31;5251893;28;20077;-77
2021/12/25 02:56:48;;;;;;;0.70;0.20;;;;;;;-2.98;91.05;100220.63;5232166;28;20028;-77
2021/12/25 02:59:19;;;;;;;0.55;0.10;;;;;;;-2.95;90.27;100220.66;5251126;28;20522;-77
2021/12/25 03:01:49;;;;;;;3.25;0.30;;;;;;;-2.95;89.50;100219.78;5251984;28;20041;-77
2021/12/25 03:04:19;;;;;;;0.50;0.20;;;;;;;-3.08;90.43;100218.78;5252873;28;20086;-77
2021/12/25 03:06:50;;;;;;;2.47;0.20;;;;;;;-3.01;89.40;100219.72;5251712;28;20025;-77
2021/12/25 03:09:20;;;;;;;1.98;0.28;;;;;;;-2.98;90.12;100223.19;5253517;28;20028;-77
2021/12/25 03:11:52;;;;;;;0.82;0.20;;;;;;;-2.95;90.13;100228.34;5237478;28;20250;-77
2021/12/25 03:14:35;;;;;;;0.63;0.20;;;;;;;-3.01;90.26;100225.69;5256008;28;20040;-78
2021/12/25 03:17:06;;;;;;;0.30;0.20;;;;;;;-3.15;90.78;100231.47;5265397;28;20024;-78
2021/12/25 03:19:36;;;;;;;0.52;0.10;;;;;;;-3.19;90.45;100237.38;5261621;28;20100;-79
2021/12/25 03:22:06;;;;;;;3.63;0.28;;;;;;;-3.13;91.42;100230.66;5260840;28;20537;-79
2021/12/25 03:24:37;;;;;;;1.20;0.30;;;;;;;-3.10;92.10;100234.91;5265613;28;20043;-77
2021/12/25 03:27:07;;;;;;;2.55;0.20;;;;;;;-3.07;90.54;100230.72;5237895;28;20393;-78
2021/12/25 03:29:40;;;;;;;1.40;0.30;;;;;;;-3.33;90.78;100237.16;5264818;28;20076;-78
2021/12/25 03:32:11;;;;;;;0.75;0.20;;;;;;;-3.27;92.23;100234.72;5267370;28;20078;-77
2021/12/25 03:34:41;;;;;;;3.95;0.30;;;;;;;-3.31;91.40;100239.75;5267411;28;20482;-77
2021/12/25 03:37:12;;;;;;;1.75;0.30;;;;;;;-3.41;92.56;100232.78;5266910;28;20032;-77
2021/12/25 03:39:42;;;;;;;0.57;0.15;;;;;;;-3.41;92.31;100243.88;5266581;28;20390;-77
2021/12/25 03:42:12;;;;;;;0.20;0.20;;;;;;;-3.42;92.62;100238.72;5257840;28;20036;-76
2021/12/25 03:44:43;;;;;;;1.35;0.30;;;;;;;-3.34;93.48;100244.81;5266744;28;20023;-77
2021/12/25 03:47:25;;;;;;;3.25;0.10;;;;;;;-3.28;93.60;100253.44;5260665;28;20023;-78
2021/12/25 03:58:28;;;;;;;1.50;0.20;;;;;;;-3.21;93.33;100247.56;5258416;28;20133;-79
2021/12/25 04:01:12;;;;;;;0.55;0.20;;;;;;;-3.17;93.91;100241.66;5260165;28;20024;-77
2021/12/25 04:03:50;;;;;;;3.70;0.40;;;;;;;-3.36;92.05;100247.34;5261479;28;20020;-78
2021/12/25 04:06:20;;;;;;;0.75;0.30;;;;;;;-3.41;93.74;100251.53;5258300;28;20042;-78
2021/12/25 04:08:52;;;;;;;1.65;0.30;;;;;;;-3.33;94.25;100242.28;5264368;28;20031;-78
2021/12/25 04:11:29;;;;;;;0.55;0.20;;;;;;;-3.41;93.95;100259.19;5264971;28;20512;-77
2021/12/25 04:14:00;;;;;;;2.72;0.35;;;;;;;-3.42;93.60;100254.06;5264595;28;20031;-79
2021/12/25 04:16:30;;;;;;;0.85;0.30;;;;;;;-3.31;92.99;100261.06;5258290;28;20028;-79
2021/12/25 04:19:01;;;;;;;1.58;0.30;;;;;;;-3.33;92.34;100262.69;5259432;28;20033;-78
2021/12/25 04:21:31;;;;;;;0.63;0.32;;;;;;;-3.38;93.39;100263.50;5257498;28;20052;-77
2021/12/25 04:24:02;;;;;;;1.55;0.50;;;;;;;-3.39;94.32;100270.28;5264526;28;20275;-77
2021/12/25 04:26:37;;;;;;;0.93;0.20;;;;;;;-3.42;93.85;100282.13;5264651;28;20032;-77
2021/12/25 04:29:32;;;;;;;0.85;0.40;;;;;;;-3.40;92.72;100268.56;5264263;28;20474;-77
2021/12/25 05:05:03;;;;;;;0.57;0.20;;;;;;;-3.72;95.93;100283.38;5263881;28;20106;-78
2021/12/25 05:07:33;;;;;;;3.83;0.40;;;;;;;-3.71;96.13;100282.53;5263793;28;20473;-79
2021/12/25 05:10:04;;;;;;;3.72;0.40;;;;;;;-3.69;95.46;100291.06;5263521;28;20071;-78
2021/12/25 05:12:34;;;;;;;2.13;0.40;;;;;;;-3.67;94.95;100280.91;5255668;28;20103;-78
2021/12/25 05:15:06;;;;;;;2.78;0.40;;;;;;;-3.74;95.66;100290.16;5260978;28;20024;-78
2021/12/25 05:17:36;;;;;;;2.65;0.50;;;;;;;-3.70;93.80;100299.56;5263173;28;20095;-76
2021/12/25 05:20:07;;;;;;;2.92;0.45;;;;;;;-3.79;95.25;100305.38;5258171;28;20114;-79
2021/12/25 05:22:38;;;;;;;1.13;0.35;;;;;;;-3.78;95.82;100306.25;5260341;28;20024;-80
2021/12/25 05:25:10;;;;;;;1.75;0.28;;;;;;;-3.82;95.62;100314.69;5263016;28;20454;-78
2021/12/25 05:27:41;;;;;;;1.00;0.30;;;;;;;-3.61;95.20;100311.66;5263520;28;20073;-79
2021/12/25 05:30:12;;;;;;;2.20;0.45;;;;;;;-3.75;94.02;100317.34;5262554;28;20024;-78
2021/12/25 05:32:42;;;;;;;0.20;0.20;;;;;;;-3.87;93.75;100311.19;5262763;28;20031;-79
2021/12/25 05:35:13;;;;;;;1.58;0.50;;;;;;;-3.76;94.83;100320.72;5263099;28;20024;-79
2021/12/25 05:37:43;;;;;;;1.25;0.40;;;;;;;-3.89;95.26;100313.72;5262888;28;20462;-78
2021/12/25 05:40:14;;;;;;;1.45;0.40;;;;;;;-3.96;93.37;100321.25;5257784;28;20500;-77
2021/12/25 05:42:44;;;;;;;0.65;0.30;;;;;;;-4.06;93.47;100319.34;5250354;28;20020;-78
2021/12/25 05:45:14;;;;;;;4.25;0.60;;;;;;;-3.96;92.48;100321.25;5261681;28;20401;-77
2021/12/25 05:47:45;;;;;;;2.15;0.40;;;;;;;-3.87;91.35;100318.84;5262612;28;20016;-79
2021/12/25 05:50:15;;;;;;;1.15;0.32;;;;;;;-3.87;90.65;100326.50;5252557;28;20044;-78
2021/12/25 05:52:45;;;;;;;0.70;0.25;;;;;;;-3.81;90.63;100322.34;5242021;28;20053;-78
2021/12/25 05:55:16;;;;;;;1.58;0.40;;;;;;;-3.90;91.94;100331.53;5262326;28;20512;-77
2021/12/25 05:57:46;;;;;;;0.93;0.30;;;;;;;-3.95;91.91;100331.47;5262601;28;20020;-78
2021/12/25 06:00:17;;;;;;;0.75;0.40;;;;;;;-4.04;91.49;100335.53;5262482;28;20035;-77
2021/12/25 06:02:48;;;;;;;1.05;0.50;;;;;;;-4.11;92.34;100338.81;5263031;28;20028;-79
2021/12/25 06:05:19;;;;;;;0.70;0.30;;;;;;;-4.13;92.50;100335.38;5262475;28;20077;-78
2021/12/25 06:07:50;;;;;;;1.60;0.40;;;;;;;-4.06;92.56;100345.72;5263092;28;20024;-79
2021/12/25 06:10:20;;;;;;;1.08;0.40;;;;;;;-4.28;93.04;100340.19;5262154;28;20032;-78
2021/12/25 06:12:54;;;;;;;0.80;0.30;;;;;;;-4.27;94.23;100344.47;5257079;28;20593;-78
2021/12/25 06:15:26;;;;;;;3.90;0.50;;;;;;;-4.33;93.63;100345.19;5261168;28;20532;-78
2021/12/25 06:17:57;;;;;;;2.67;0.50;;;;;;;-4.26;93.77;100349.56;5262920;28;20016;-79
2021/12/25 06:20:27;;;;;;;1.05;0.40;;;;;;;-4.12;92.96;100347.31;5256493;28;20086;-77
2021/12/25 06:22:57;;;;;;;0.82;0.32;;;;;;;-4.01;90.60;100345.78;5259857;28;20024;-78
2021/12/25 06:25:27;;;;;;;0.40;0.30;;;;;;;-4.06;91.81;100355.06;5262807;28;20031;-78
2021/12/25 06:27:58;;;;;;;1.00;0.40;;;;;;;-4.15;91.77;100352.34;5256889;28;20035;-79
2021/12/25 06:30:29;;;;;;;1.83;0.25;;;;;;;-4.18;93.29;100355.69;5259322;28;20107;-77
2021/12/25 06:32:59;;;;;;;1.05;0.40;;;;;;;-4.44;92.36;100356.00;5263504;28;20099;-77
2021/12/25 06:35:30;;;;;;;0.73;0.30;;;;;;;-4.28;92.44;100361.44;5263465;28;20069;-77
2021/12/25 06:38:00;;;;;;;1.30;0.40;;;;;;;-4.26;92.40;100361.47;5263494;28;20020;-77
2021/12/25 06:40:31;;;;;;;1.27;0.35;;;;;;;-4.28;91.79;100361.44;5263495;28;20035;-77
2021/12/25 06:43:02;;;;;;;0.77;0.20;;;;;;;-4.24;91.60;100364.91;5267375;28;20055;-78
2021/12/25 06:45:32;;;;;;;1.15;0.32;;;;;;;-4.26;94.03;100372.53;5249542;28;20028;-77
2021/12/25 06:48:02;;;;;;;1.52;0.35;;;;;;;-4.11;90.99;100365.16;5259971;28;20108;-77
2021/12/25 06:50:33;;;;;;;1.92;0.40;;;;;;;-4.23;89.41;100374.28;5259916;28;20029;-77
2021/12/25 06:53:03;;;;;;;1.05;0.40;;;;;;;-4.19;90.06;100366.72;5265174;28;20035;-78
2021/12/25 06:55:33;;;;;;;3.38;0.22;;;;;;;-4.21;90.71;100370.94;5265681;28;20032;-78
2021/12/25 06:58:04;;;;;;;2.97;0.50;;;;;;;-4.33;92.94;100368.13;5260067;28;20123;-77
2021/12/25 07:00:35;;;;;;;1.23;0.40;;;;;;;-4.23;93.75;100369.19;5247610;28;20035;-77
2021/12/25 07:03:05;;;;;;;0.63;0.25;;;;;;;-4.33;93.83;100385.16;5267284;28;20374;-77
2021/12/25 07:05:36;;;;;;;1.23;0.40;;;;;;;-4.38;94.76;100381.63;5267525;28;20032;-77
2021/12/25 07:08:07;;;;;;;1.13;0.20;;;;;;;-4.30;94.28;100378.41;5267567;28;20471;-78
2021/12/25 07:10:37;;;;;;;0.75;0.25;;;;;;;-4.26;92.37;100372.53;5266920;28;20028;-78
2021/12/25 07:13:08;;;;;;;2.90;0.30;;;;;;;-4.28;94.08;100381.00;5263640;28;20035;-77
2021/12/25 07:15:38;;;;;;;0.95;0.35;;;;;;;-4.27;94.47;100387.81;5261120;28;20538;-77
2021/12/25 07:18:09;;;;;;;1.23;0.28;;;;;;;-4.37;94.20;100384.22;5246921;28;20016;-77
2021/12/25 07:20:39;;;;;;;1.50;0.40;;;;;;;-4.31;94.00;100386.03;5260467;28;20029;-77
2021/12/25 07:23:09;;;;;;;0.68;0.40;;;;;;;-4.35;94.51;100389.31;5263359;28;20435;-77
2021/12/25 07:25:40;;;;;;;1.00;0.30;;;;;;;-4.18;93.06;100385.44;5266298;28;20020;-77
2021/12/25 07:28:10;;;;;;;1.33;0.30;;;;;;;-4.27;93.61;100390.34;5266030;28;20121;-77
2021/12/25 07:30:41;;;;;;;1.08;0.38;;;;;;;-4.28;94.39;100388.63;5266231;28;20032;-78
2021/12/25 07:33:11;;;;;;;0.75;0.40;;;;;;;-4.41;94.72;100386.66;5255328;28;20062;-78
2021/12/25 07:35:41;;;;;;;0.43;0.20;;;;;;;-4.23;95.02;100397.22;5253132;28;20120;-78
2021/12/25 07:38:11;;;;;;;2.53;0.40;;;;;;;-4.08;92.21;100392.44;5253683;28;20084;-78
2021/12/25 07:40:42;;;;;;;1.25;0.35;;;;;;;-4.14;92.62;100402.53;5251844;28;20040;-79
2021/12/25 07:43:13;;;;;;;0.52;0.30;;;;;;;-3.97;92.18;100401.16;5252634;28;20548;-78
2021/12/25 07:45:47;;;;;;;1.27;0.50;;;;;;;-4.08;91.22;100405.19;5256705;28;20389;-77
2021/12/25 07:48:20;;;;;;;1.92;0.60;;;;;;;-4.10;91.07;100410.25;5258755;28;20077;-77
2021/12/25 07:50:50;;;;;;;1.48;0.40;;;;;;;-4.11;90.90;100407.69;5258352;28;20208;-79
2021/12/25 07:53:21;;;;;;;3.35;0.35;;;;;;;-4.05;92.43;100407.78;5262902;28;20023;-80
2021/12/25 07:55:51;;;;;;;1.48;0.55;;;;;;;-3.84;90.69;100408.19;5265278;28;20028;-78
2021/12/25 07:58:22;;;;;;;1.77;0.40;;;;;;;-3.48;90.97;100413.16;5264130;28;20023;-78
2021/12/25 08:00:53;;;;;;;0.55;0.25;;;;;;;-3.12;88.08;100416.31;5262733;28;20027;-79
2021/12/25 08:03:23;;;;;;;1.35;0.40;;;;;;;-2.53;83.93;100410.38;5257378;28;20184;-78
2021/12/25 08:05:54;;;;;;;1.20;0.40;;;;;;;-1.83;81.51;100402.72;5265041;28;20585;-77
2021/12/25 08:08:24;;;;;;;1.73;0.35;;;;;;;-1.42;80.20;100414.25;5256500;28;20478;-79
2021/12/25 08:10:55;;;;;;;3.65;0.60;;;;;;;-0.49;77.98;100409.84;5261784;28;20039;-78
2021/12/25 08:13:26;;;;;;;1.60;0.43;;;;;;;-0.26;75.01;100410.81;5264653;28;20039;-78
2021/12/25 08:15:56;;;;;;;1.48;0.45;;;;;;;-0.91;76.48;100412.13;5264497;28;20501;-79
2021/12/25 08:18:26;;;;;;;3.03;0.57;;;;;;;-0.11;74.25;100409.19;5264265;28;20069;-77
2021/12/25 08:20:59;;;;;;;1.60;0.60;;;;;;;0.04;73.51;100415.22;5264473;28;20027;-78
2021/12/25 08:23:29;;;;;;;2.95;0.60;;;;;;;0.03;71.86;100410.09;5264766;28;20101;-79
2021/12/25 08:26:01;;;;;;;1.88;0.63;;;;;;;0.71;71.62;100414.53;5264827;28;20028;-80
2021/12/25 08:28:31;;;;;;;2.30;0.80;;;;;;;0.19;73.53;100420.41;5264021;28;20043;-78
2021/12/25 08:31:02;;;;;;;2.13;0.57;;;;;;;0.86;71.90;100427.41;5256497;28;20024;-77
2021/12/25 08:33:32;;;;;;;4.72;0.60;;;;;;;0.75;72.00;100411.09;5257241;28;20079;-79
2021/12/25 08:36:03;;;;;;;2.17;0.75;;;;;;;0.80;70.12;100422.25;5264761;28;20028;-78
2021/12/25 08:38:33;;;;;;;1.42;0.38;;;;;;;-0.04;72.89;100417.78;5264176;28;20085;-78
2021/12/25 08:41:03;;;;;;;2.63;0.75;;;;;;;-1.24;76.52;100434.94;5264821;28;20127;-78
2021/12/25 08:43:36;;;;;;;1.75;0.60;;;;;;;-1.58;79.47;100430.31;5265360;28;20036;-78
2021/12/25 08:46:15;;;;;;;2.30;0.63;;;;;;;-1.98;81.36;100440.94;5263691;28;20024;-78
2021/12/25 08:48:46;;;;;;;3.97;0.63;;;;;;;-2.22;81.29;100450.00;5234643;28;20012;-78
2021/12/25 08:51:16;;;;;;;1.67;0.43;;;;;;;-2.23;81.47;100450.84;5246450;28;20435;-79
2021/12/25 08:53:47;;;;;;;1.13;0.38;;;;;;;-2.12;81.78;100450.19;5263860;28;20050;-78
2021/12/25 08:56:17;;;;;;;1.75;0.40;;;;;;;-2.23;80.73;100455.97;5258944;28;20352;-78
2021/12/25 08:58:47;;;;;;;0.65;0.30;;;;;;;-2.32;79.28;100456.69;5259042;28;20446;-78
2021/12/25 09:01:18;;;;;;;2.70;0.40;;;;;;;-2.47;79.24;100466.72;5260902;28;20032;-78
2021/12/25 09:03:48;;;;;;;1.02;0.22;;;;;;;-2.48;79.19;100464.16;5240082;28;20093;-77
2021/12/25 09:06:18;;;;;;;1.17;0.32;;;;;;;-2.52;79.81;100463.25;5263999;28;20086;-80
2021/12/25 09:08:48;;;;;;;0.88;0.20;;;;;;;-2.58;80.98;100468.28;5249770;28;20025;-80
2021/12/25 09:11:21;;;;;;;1.55;0.25;;;;;;;-2.81;81.67;100468.75;5249014;28;20435;-78
2021/12/25 09:13:51;;;;;;;2.85;0.32;;;;;;;-2.75;80.59;100471.41;5244759;28;20016;-79
2021/12/25 09:16:22;;;;;;;3.85;0.43;;;;;;;-2.88;81.84;100483.13;5255756;28;20444;-77
2021/12/25 09:18:52;;;;;;;3.20;0.38;;;;;;;-2.83;82.71;100494.28;5263014;28;20122;-77
2021/12/25 09:21:22;;;;;;;1.10;0.30;;;;;;;-2.87;80.02;100486.56;5263835;28;20067;-77
2021/12/25 09:23:53;;;;;;;1.15;0.30;;;;;;;-3.00;81.36;100476.97;5263554;28;20027;-77
2021/12/25 09:26:23;;;;;;;2.88;0.30;;;;;;;-2.86;80.84;100480.63;5258545;28;20028;-79
2021/12/25 09:28:53;;;;;;;2.05;0.20;;;;;;;-2.98;81.18;100486.41;5249692;28;20280;-78
2021/12/25 09:31:24;;;;;;;3.90;0.30;;;;;;;-2.88;80.24;100483.13;5252685;28;20036;-78
2021/12/25 09:33:54;;;;;;;2.83;0.60;;;;;;;-2.78;81.35;100485.03;5246293;28;20501;-78
2021/12/25 09:36:26;;;;;;;3.88;0.40;;;;;;;-2.78;80.93;100492.69;5245213;28;20030;-78
2021/12/25 09:38:57;;;;;;;2.70;0.80;;;;;;;-2.76;81.51;100501.25;5263369;28;20624;-78
2021/12/25 09:41:29;;;;;;;2.40;0.70;;;;;;;-2.94;80.77;100508.63;5255168;28;20036;-79
2021/12/25 09:44:02;;;;;;;1.50;0.40;;;;;;;-2.90;80.68;100502.72;5251953;28;20027;-80
2021/12/25 09:46:33;;;;;;;2.92;0.75;;;;;;;-2.80;79.90;100504.59;5250591;28;20061;-78
2021/12/25 09:49:04;;;;;;;4.53;2.35;;;;;;;-2.86;81.88;100504.47;5251867;28;20514;-78
2021/12/25 09:51:34;;;;;;;4.00;1.00;;;;;;;-2.76;82.28;100515.69;5258165;28;20149;-78
2021/12/25 09:54:10;;;;;;;6.20;2.03;;;;;;;-2.64;82.58;100508.25;5262315;28;20111;-79
2021/12/25 09:56:42;;;;;;;1.80;0.80;;;;;;;-2.84;82.04;100504.50;5261887;28;20176;-80
2021/12/25 09:59:13;;;;;;;6.72;2.20;;;;;;;-2.86;81.32;100504.47;5262322;28;20024;-80
2021/12/25 10:01:50;;;;;;;6.57;2.20;;;;;;;-2.82;83.48;100498.56;5250312;28;20031;-79
2021/12/25 10:04:38;;;;;;;1.35;0.38;;;;;;;-2.68;80.50;100497.09;5257622;28;20024;-79
2021/12/25 10:07:20;;;;;;;3.42;0.30;;;;;;;-2.74;80.33;100501.25;5258357;28;20525;-78
2021/12/25 10:10:10;;;;;;;3.22;0.40;;;;;;;-2.77;80.14;100498.66;5250935;28;20032;-79
2021/12/25 10:12:44;;;;;;;0.93;0.30;;;;;;;-2.81;80.20;100502.00;5254602;28;20385;-80
2021/12/25 10:15:25;;;;;;;0.38;0.20;;;;;;;-2.86;81.45;100501.06;5251128;28;20385;-78
2021/12/25 10:17:59;;;;;;;1.05;0.50;;;;;;;-2.65;80.49;100499.69;5251844;28;20127;-77
2021/12/25 10:20:32;;;;;;;0.70;0.30;;;;;;;-2.67;79.92;100503.09;5254263;28;20394;-80
2021/12/25 10:23:13;;;;;;;0.52;0.50;;;;;;;-2.41;80.90;100492.41;5254692;28;20028;-77
2021/12/25 10:25:44;;;;;;;5.70;0.57;;;;;;;-2.48;81.16;100495.69;5251920;28;20039;-80
2021/12/25 10:28:17;;;;;;;1.27;0.17;;;;;;;-2.51;81.32;100485.41;5261510;28;20024;-78
2021/12/25 10:30:55;;;;;;;2.80;0.38;;;;;;;-2.49;80.09;100483.75;5262235;28;20032;-79
2021/12/25 10:33:30;;;;;;;4.90;0.50;;;;;;;-2.31;80.78;100484.00;5261622;28;20032;-79
2021/12/25 10:36:23;;;;;;;0.35;0.20;;;;;;;-2.12;80.33;100480.00;5261854;28;20047;-78
2021/12/25 10:38:58;;;;;;;3.22;0.32;;;;;;;-1.98;79.26;100494.69;5255820;28;20371;-79
2021/12/25 10:41:29;;;;;;;1.20;0.30;;;;;;;-2.14;80.67;100497.91;5261526;28;20099;-77
2021/12/25 10:44:18;;;;;;;2.67;0.35;;;;;;;-2.01;79.14;100494.66;5261501;28;20035;-79
2021/12/25 10:47:12;;;;;;;2.15;0.38;;;;;;;-1.97;80.41;100488.72;5249645;28;20222;-79
2021/12/25 10:49:43;;;;;;;1.27;0.40;;;;;;;-1.96;80.52;100490.44;5253346;28;20054;-79
2021/12/25 10:52:19;;;;;;;3.20;0.22;;;;;;;-2.12;80.70;100491.13;5259887;28;20023;-77
2021/12/25 10:54:59;;;;;;;1.45;0.43;;;;;;;-2.18;79.49;100503.81;5254974;28;20020;-79
2021/12/25 10:57:31;;;;;;;2.10;0.30;;;;;;;-2.11;79.97;100489.41;5261653;28;20024;-78
2021/12/25 11:00:07;;;;;;;0.63;0.30;;;;;;;-1.91;82.59;100490.53;5261070;28;20082;-80
2021/12/25 11:02:45;;;;;;;2.03;0.30;;;;;;;-1.99;79.96;100482.75;5260696;28;20035;-79
2021/12/25 11:05:24;;;;;;;3.10;0.40;;;;;;;-1.76;79.32;100482.19;5253791;28;20111;-79
2021/12/25 11:08:07;;;;;;;0.77;0.30;;;;;;;-1.93;79.92;100477.72;5260864;28;20036;-78
2021/12/25 11:11:08;;;;;;;2.00;0.40;;;;;;;-2.17;78.46;100467.16;5258210;28;20033;-78
2021/12/25 11:13:47;;;;;;;1.33;0.30;;;;;;;-2.20;79.11;100461.16;5235240;28;20091;-78
2021/12/25 11:16:27;;;;;;;0.70;0.22;;;;;;;-1.98;81.06;100461.41;5207662;28;20040;-80
2021/12/25 11:19:11;;;;;;;2.42;0.65;;;;;;;-1.87;81.40;100457.31;5236004;28;20021;-79
2021/12/25 11:21:44;;;;;;;2.00;0.30;;;;;;;-1.67;81.89;100464.38;5249345;28;20488;-79
2021/12/25 11:24:19;;;;;;;2.13;0.40;;;;;;;-1.71;80.14;100474.56;5220389;28;20171;-77
2021/12/25 11:27:02;;;;;;;;;;;;;;;-1.91;80.31;100472.59;5253442;28;20107;-77
2021/12/25 11:29:36;;;;;;;1.80;0.30;;;;;;;-1.93;80.66;100472.59;5247965;28;19912;-78
2021/12/25 11:32:12;;;;;;;0.80;0.20;;;;;;;-1.88;79.75;100469.22;5240617;28;20163;-79
2021/12/25 11:34:42;;;;;;;1.52;0.30;;;;;;;-1.91;79.36;100459.78;5228316;28;20109;-76
2021/12/25 11:37:13;;;;;;;3.17;0.50;;;;;;;-1.75;80.35;100477.94;5252205;28;20107;-78
2021/12/25 11:39:51;;;;;;;1.63;0.40;;;;;;;-1.89;78.36;100474.34;5248813;28;20398;-77
2021/12/25 11:42:25;;;;;;;0.85;0.28;;;;;;;-1.93;78.57;100474.28;5258151;28;20052;-77
2021/12/25 11:44:55;;;;;;;1.85;0.30;;;;;;;-2.08;77.18;100467.28;5258205;28;20028;-78
2021/12/25 11:47:44;;;;;;;1.63;0.20;;;;;;;-1.94;80.65;100473.44;5262995;28;20024;-80
2021/12/25 11:50:16;;;;;;;0.60;0.20;;;;;;;-1.82;77.26;100483.81;5257042;28;20027;-78
2021/12/25 11:53:04;;;;;;;2.00;0.30;;;;;;;-1.76;77.53;100495.00;5263885;28;20024;-80
2021/12/25 11:58:39;;;;;;;1.27;0.40;;;;;;;-1.65;77.81;100479.75;5254246;28;20030;-79
2021/12/25 12:01:27;;;;;;;3.28;0.40;;;;;;;-1.78;79.79;100481.31;5239709;28;20032;-77
2021/12/25 12:04:01;;;;;;;3.38;0.30;;;;;;;-2.22;80.38;100485.84;5226143;28;20031;-79
2021/12/25 12:06:46;;;;;;;2.88;0.40;;;;;;;-2.13;80.44;100480.84;5253757;28;20377;-78
2021/12/25 12:09:25;;;;;;;1.08;0.30;;;;;;;-2.19;79.38;100475.66;5256163;28;20048;-77
2021/12/25 12:12:04;;;;;;;1.67;0.30;;;;;;;-2.07;80.78;100473.25;5264364;28;20044;-78
2021/12/25 12:14:34;;;;;;;1.35;0.30;;;;;;;-1.94;78.61;100468.31;5260413;28;20028;-78
2021/12/25 12:17:17;;;;;;;0.60;0.30;;;;;;;-1.86;77.59;100458.19;5265123;28;20023;-78
2021/12/25 12:19:51;;;;;;;1.48;0.30;;;;;;;-2.04;76.76;100473.28;5252440;28;20036;-78
2021/12/25 12:27:39;;;;;;;4.47;0.60;;;;;;;-1.94;77.29;100463.19;5263755;28;20038;-77
2021/12/25 12:30:13;;;;;;;0.83;0.40;;;;;;;-1.88;76.05;100456.44;5249370;28;20130;-78
2021/12/25 12:32:44;;;;;;;1.05;0.30;;;;;;;-1.83;78.14;100450.53;5259948;28;20119;-77
2021/12/25 12:35:37;;;;;;;0.65;0.38;;;;;;;-1.79;78.88;100460.78;5265967;28;20502;-77
2021/12/25 12:38:37;;;;;;;2.55;0.50;;;;;;;-1.79;77.55;100455.66;5266689;28;20020;-78
2021/12/25 12:41:22;;;;;;;1.50;0.40;;;;;;;-1.63;77.27;100462.69;5262322;28;20020;-78
2021/12/25 12:44:29;;;;;;;0.47;0.28;;;;;;;-1.86;77.45;100453.91;5258670;28;20039;-77
2021/12/25 12:47:03;;;;;;;3.70;0.50;;;;;;;-1.80;77.25;100452.28;5259331;28;20099;-78
2021/12/25 12:49:53;;;;;;;1.33;0.45;;;;;;;-1.92;78.43;100458.97;5247690;28;20452;-78
2021/12/25 12:52:28;;;;;;;1.95;0.60;;;;;;;-1.88;78.80;100453.88;5256883;28;20119;-78
2021/12/25 12:55:11;;;;;;;2.33;0.40;;;;;;;-1.84;78.20;100452.22;5262075;28;20063;-79
2021/12/25 12:57:45;;;;;;;0.80;0.43;;;;;;;-1.89;78.09;100453.88;5257609;28;20055;-79
2021/12/25 13:00:26;;;;;;;1.77;0.40;;;;;;;-1.78;79.98;100454.88;5251831;28;20327;-79
2021/12/25 13:02:58;;;;;;;1.70;0.50;;;;;;;-1.73;78.22;100456.59;5261461;28;20390;-77
2021/12/25 13:05:40;;;;;;;2.45;0.43;;;;;;;-1.66;78.19;100458.41;5261897;28;20499;-78
2021/12/25 13:08:22;;;;;;;3.05;0.43;;;;;;;-1.81;77.96;100457.34;5257144;28;20283;-78
2021/12/25 13:11:02;;;;;;;0.85;0.32;;;;;;;-1.81;78.92;100453.13;5254860;28;20064;-79
2021/12/25 13:13:39;;;;;;;0.75;0.38;;;;;;;-1.80;78.80;100448.84;5254371;28;20080;-78
2021/12/25 13:16:15;;;;;;;4.05;0.80;;;;;;;-1.84;77.66;100462.44;5254546;28;20019;-78
2021/12/25 13:18:48;;;;;;;1.40;0.40;;;;;;;-1.83;77.54;100475.28;5231726;28;20501;-80
2021/12/25 13:21:23;;;;;;;1.08;0.40;;;;;;;-2.02;77.70;100477.59;5223905;28;20028;-78
2021/12/25 13:23:58;;;;;;;4.07;0.40;;;;;;;-2.03;78.24;100470.75;5242464;28;20071;-79